Time;durP1;ratioP1;P1;durP2;ratioP2;P2;SDS_P1;SDS_P2;PMS_P1;PMS_P2;Temp;Humidity;BMP_temperature;BMP_pressure;BME280_temperature;BME280_humidity;BME280_pressure;Samples;Min_cycle;Max_cycle;Signal;HPM_P1;HPM_P2
2023/09/17 00:02:23;;;;;;;3.45;2.10;;;;;;;;;;5004797;28;20021;-83
2023/09/17 00:04:49;;;;;;;4.70;2.72;;;;;;;;;;4999207;28;20030;-81
2023/09/17 00:07:15;;;;;;;4.97;2.65;;;;;;;;;;5004876;28;20025;-81
2023/09/17 00:09:41;;;;;;;5.60;3.08;;;17.30;99.90;;;;;;5002107;28;20040;-82
2023/09/17 00:12:07;;;;;;;6.28;2.03;;;;;;;;;;5003627;28;20030;-82
2023/09/17 00:14:33;;;;;;;4.50;2.42;;;;;;;;;;5015932;28;20109;-85
2023/09/17 00:16:59;;;;;;;3.95;2.08;;;17.60;99.90;;;;;;5025851;28;20022;-83
2023/09/17 00:19:26;;;;;;;4.35;2.33;;;;;;;;;;5022004;28;20127;-86
2023/09/17 00:21:52;;;;;;;4.82;2.63;;;;;;;;;;4999159;28;20420;-83
2023/09/17 00:24:18;;;;;;;3.13;2.00;;;;;;;;;;5000760;28;20040;-85
2023/09/17 00:26:44;;;;;;;4.10;2.38;;;;;;;;;;5002443;28;20030;-84
2023/09/17 00:29:10;;;;;;;4.15;2.17;;;;;;;;;;4998291;28;20037;-84
2023/09/17 00:31:37;;;;;;;6.50;2.03;;;;;;;;;;5005159;28;20036;-83
2023/09/17 00:34:03;;;;;;;5.88;2.25;;;;;;;;;;5000892;28;20026;-83
2023/09/17 00:36:30;;;;;;;7.03;2.17;;;;;;;;;;5002914;28;20030;-87
2023/09/17 00:38:55;;;;;;;7.80;2.47;;;;;;;;;;4998866;28;22019;-82
2023/09/17 00:41:21;;;;;;;6.85;2.72;;;17.20;99.90;;;;;;4991708;28;20035;-81
2023/09/17 00:43:47;;;;;;;3.88;1.75;;;;;;;;;;5004201;28;20046;-83
2023/09/17 00:46:14;;;;;;;5.22;2.45;;;;;;;;;;5001528;28;20064;-85
2023/09/17 00:48:40;;;;;;;3.17;2.03;;;;;;;;;;4999974;28;20033;-83
2023/09/17 00:51:06;;;;;;;8.25;2.03;;;;;;;;;;5003455;28;20105;-84
2023/09/17 00:53:32;;;;;;;4.53;2.63;;;;;;;;;;5001159;28;20637;-83
2023/09/17 00:55:59;;;;;;;4.82;2.30;;;;;;;;;;4999875;28;20038;-83
2023/09/17 00:58:27;;;;;;;5.25;2.30;;;;;;;;;;5002015;28;20097;-85
2023/09/17 01:00:53;;;;;;;5.25;2.17;;;16.90;99.90;;;;;;4997289;28;20946;-84
2023/09/17 01:03:19;;;;;;;4.97;1.98;;;;;;;;;;5000440;28;20038;-82
2023/09/17 01:05:45;;;;;;;3.92;2.47;;;;;;;;;;4996927;28;20449;-84
2023/09/17 01:08:12;;;;;;;4.38;2.33;;;;;;;;;;5001949;28;20054;-83
2023/09/17 01:10:41;;;;;;;4.68;2.22;;;17.00;99.90;;;;;;5000367;28;20064;-83
2023/09/17 01:13:08;;;;;;;5.85;2.28;;;;;;;;;;5002361;28;20500;-82
2023/09/17 01:15:34;;;;;;;3.38;1.90;;;;;;;;;;5003077;28;20100;-84
2023/09/17 01:18:02;;;;;;;3.92;2.40;;;;;;;;;;5008307;28;20045;-83
2023/09/17 01:20:30;;;;;;;3.00;1.88;;;;;;;;;;5003715;28;20274;-83
2023/09/17 01:23:17;;;;;;;7.28;2.55;;;17.10;99.90;;;;;;5004800;28;20082;-85
2023/09/17 01:26:01;;;;;;;4.28;3.00;;;16.60;99.90;;;;;;5001343;28;20029;-84
2023/09/17 01:28:28;;;;;;;4.03;2.42;;;16.70;99.90;;;;;;5007063;28;20048;-82
2023/09/17 01:30:54;;;;;;;4.50;2.30;;;;;;;;;;5001744;28;20042;-82
2023/09/17 01:33:20;;;;;;;3.85;2.15;;;;;;;;;;5002816;28;20030;-87
2023/09/17 01:36:13;;;;;;;5.07;2.67;;;16.50;99.90;;;;;;5000161;28;20022;-80
2023/09/17 01:38:48;;;;;;;3.92;2.45;;;16.70;99.90;;;;;;5004697;28;20038;-82
2023/09/17 01:41:16;;;;;;;3.83;2.25;;;16.20;99.90;;;;;;4997493;28;20034;-81
2023/09/17 01:43:44;;;;;;;4.55;2.22;;;;;;;;;;5006728;28;20065;-82
2023/09/17 01:46:10;;;;;;;3.67;2.33;;;;;;;;;;4999802;28;20064;-86
2023/09/17 01:48:37;;;;;;;4.50;2.53;;;;;;;;;;5001616;28;20087;-86
2023/09/17 01:51:03;;;;;;;3.60;2.22;;;;;;;;;;5002035;28;20017;-86
2023/09/17 01:53:29;;;;;;;4.18;3.00;;;;;;;;;;5005831;28;20393;-84
2023/09/17 01:55:56;;;;;;;3.78;2.20;;;;;;;;;;5003642;28;20504;-84
2023/09/17 01:58:23;;;;;;;6.38;2.65;;;16.90;99.90;;;;;;5006977;28;20499;-82
2023/09/17 02:00:52;;;;;;;4.72;2.92;;;;;;;;;;5006090;28;20296;-82
2023/09/17 02:03:18;;;;;;;3.90;2.53;;;;;;;;;;5002203;28;20037;-82
2023/09/17 02:05:44;;;;;;;4.93;2.60;;;;;;;;;;5004899;28;20042;-83
2023/09/17 02:08:10;;;;;;;5.45;2.70;;;;;;;;;;5007666;28;20026;-83
2023/09/17 02:10:36;;;;;;;4.53;2.50;;;;;;;;;;5001874;28;20527;-83
2023/09/17 02:13:02;;;;;;;4.22;2.25;;;;;;;;;;5006006;28;20569;-82
2023/09/17 02:15:28;;;;;;;8.30;3.38;;;;;;;;;;5006587;28;20026;-85
2023/09/17 02:17:54;;;;;;;5.20;3.10;;;;;;;;;;5005803;28;20029;-81
2023/09/17 02:20:20;;;;;;;4.38;2.63;;;;;;;;;;5003016;28;20044;-82
2023/09/17 02:22:46;;;;;;;4.20;2.58;;;;;;;;;;5002193;28;20038;-86
2023/09/17 02:25:12;;;;;;;4.20;2.55;;;;;;;;;;5013377;28;20023;-82
2023/09/17 02:27:39;;;;;;;7.20;2.85;;;;;;;;;;5001666;28;20029;-83
2023/09/17 02:30:05;;;;;;;4.43;2.78;;;;;;;;;;5007647;28;20018;-83
2023/09/17 02:32:31;;;;;;;3.95;2.20;;;;;;;;;;5003042;28;20105;-86
2023/09/17 02:34:57;;;;;;;5.80;2.58;;;15.80;99.90;;;;;;5006289;28;20025;-82
2023/09/17 02:37:23;;;;;;;4.30;2.67;;;;;;;;;;5008132;28;20025;-80
2023/09/17 02:39:49;;;;;;;5.93;2.83;;;16.50;99.90;;;;;;4997475;28;20037;-83
2023/09/17 02:42:15;;;;;;;3.60;2.35;;;;;;;;;;5003304;28;20037;-81
2023/09/17 02:44:42;;;;;;;4.68;3.13;;;16.30;99.90;;;;;;5002952;28;20026;-81
2023/09/17 02:47:09;;;;;;;5.95;2.88;;;;;;;;;;5002119;28;20061;-87
2023/09/17 02:49:34;;;;;;;9.52;2.78;;;;;;;;;;5000876;28;20049;-82
2023/09/17 02:52:00;;;;;;;5.63;2.83;;;;;;;;;;5003960;28;20033;-83
2023/09/17 02:54:27;;;;;;;3.72;2.53;;;;;;;;;;5003284;28;20109;-82
2023/09/17 02:56:53;;;;;;;4.28;2.53;;;16.10;99.90;;;;;;5003036;28;20034;-82
2023/09/17 02:59:19;;;;;;;7.32;3.63;;;;;;;;;;5005784;28;20092;-82
2023/09/17 03:01:45;;;;;;;6.35;3.42;;;;;;;;;;5001849;28;20510;-86
2023/09/17 03:04:11;;;;;;;7.65;3.15;;;;;;;;;;4993783;28;20045;-85
2023/09/17 03:06:37;;;;;;;4.35;2.75;;;16.30;99.90;;;;;;5003972;28;20022;-81
2023/09/17 03:09:10;;;;;;;4.82;3.03;;;;;;;;;;4996610;28;20029;-83
2023/09/17 03:11:36;;;;;;;5.85;3.22;;;;;;;;;;4996665;28;20062;-82
2023/09/17 03:14:02;;;;;;;3.75;2.65;;;;;;;;;;5002186;28;20057;-83
2023/09/17 03:16:29;;;;;;;4.80;2.58;;;16.00;99.90;;;;;;4999171;28;20041;-83
2023/09/17 03:18:55;;;;;;;5.05;2.95;;;15.40;99.90;;;;;;4997444;28;20152;-83
2023/09/17 03:21:21;;;;;;;8.15;3.08;;;;;;;;;;4996412;28;20054;-82
2023/09/17 03:23:47;;;;;;;4.70;2.90;;;15.40;99.90;;;;;;5000492;28;20038;-82
2023/09/17 03:26:13;;;;;;;7.50;3.22;;;;;;;;;;5003425;28;20033;-86
2023/09/17 03:28:39;;;;;;;5.07;2.83;;;;;;;;;;5000165;28;20133;-83
2023/09/17 03:31:04;;;;;;;6.30;3.17;;;15.50;99.90;;;;;;4998279;28;20041;-83
2023/09/17 03:33:31;;;;;;;6.05;3.47;;;;;;;;;;4997077;28;20061;-87
2023/09/17 03:35:58;;;;;;;6.63;2.92;;;16.10;99.90;;;;;;4990678;28;20024;-85
2023/09/17 03:38:24;;;;;;;5.18;2.75;;;;;;;;;;4998155;28;20630;-85
2023/09/17 03:40:50;;;;;;;5.70;3.13;;;;;;;;;;4998445;28;20030;-84
2023/09/17 03:43:16;;;;;;;7.50;3.92;;;;;;;;;;4998867;28;20037;-82
2023/09/17 03:45:42;;;;;;;8.55;3.47;;;;;;;;;;5004124;28;20113;-84
2023/09/17 03:48:08;;;;;;;7.57;3.88;;;;;;;;;;5003668;28;20248;-83
2023/09/17 03:50:39;;;;;;;5.65;3.30;;;;;;;;;;4992382;28;20034;-82
2023/09/17 03:53:06;;;;;;;5.20;3.35;;;16.50;99.90;;;;;;4998529;28;20044;-82
2023/09/17 03:55:33;;;;;;;9.68;4.22;;;16.10;99.90;;;;;;5003568;28;20049;-83
2023/09/17 03:58:00;;;;;;;6.95;3.72;;;;;;;;;;5000145;28;20037;-84
2023/09/17 04:00:26;;;;;;;5.30;2.95;;;;;;;;;;4997753;28;20049;-84
2023/09/17 04:02:52;;;;;;;6.38;3.00;;;16.40;99.90;;;;;;4999419;28;20034;-82
2023/09/17 04:05:21;;;;;;;8.43;3.72;;;;;;;;;;5005544;28;20022;-85
2023/09/17 04:07:47;;;;;;;8.00;3.88;;;;;;;;;;5005255;28;20025;-83
2023/09/17 04:10:14;;;;;;;6.55;3.10;;;;;;;;;;5004839;28;20022;-85
2023/09/17 04:12:41;;;;;;;5.85;3.50;;;;;;;;;;5008691;28;20036;-82
2023/09/17 04:15:12;;;;;;;6.75;3.53;;;15.30;99.90;;;;;;5003493;28;20107;-84
2023/09/17 04:17:38;;;;;;;6.70;3.25;;;;;;;;;;5024162;28;20206;-85
2023/09/17 04:20:09;;;;;;;6.93;3.88;;;;;;;;;;5024419;28;20033;-85
2023/09/17 04:22:35;;;;;;;5.68;3.35;;;;;;;;;;5018415;28;20038;-85
2023/09/17 04:25:01;;;;;;;5.78;3.40;;;;;;;;;;5001638;28;20033;-87
2023/09/17 04:27:27;;;;;;;5.32;3.25;;;;;;;;;;4994702;28;20029;-85
2023/09/17 04:29:53;;;;;;;5.80;3.30;;;;;;;;;;4999120;28;20029;-83
2023/09/17 04:32:19;;;;;;;6.10;2.65;;;;;;;;;;4997223;28;20026;-83
2023/09/17 04:34:45;;;;;;;5.72;3.45;;;;;;;;;;4994667;28;20047;-83
2023/09/17 04:37:11;;;;;;;5.90;3.22;;;;;;;;;;4995994;28;20034;-83
2023/09/17 04:39:37;;;;;;;6.32;3.22;;;;;;;;;;4991907;28;20604;-88
2023/09/17 04:42:03;;;;;;;6.53;3.75;;;;;;;;;;5006582;28;20032;-84
2023/09/17 04:44:29;;;;;;;6.57;3.50;;;;;;;;;;5002366;28;20037;-86
2023/09/17 04:46:55;;;;;;;7.18;3.55;;;;;;;;;;4995234;28;20029;-84
2023/09/17 04:49:21;;;;;;;5.72;3.20;;;;;;;;;;4994852;28;20061;-84
2023/09/17 04:51:47;;;;;;;5.22;2.75;;;;;;;;;;4999532;28;20030;-83
2023/09/17 04:54:13;;;;;;;5.43;2.95;;;;;;;;;;5002354;28;20041;-83
2023/09/17 04:56:39;;;;;;;7.82;4.57;;;;;;;;;;4996536;28;20069;-84
2023/09/17 04:59:05;;;;;;;7.38;4.43;;;;;;;;;;5001353;28;21024;-84
2023/09/17 05:01:31;;;;;;;7.00;3.45;;;;;;;;;;4995209;28;20496;-84
2023/09/17 05:03:57;;;;;;;9.55;3.67;;;;;;;;;;4999043;28;20041;-83
2023/09/17 05:06:23;;;;;;;5.40;3.35;;;;;;;;;;5007390;28;20041;-83
2023/09/17 05:08:49;;;;;;;10.23;3.75;;;;;;;;;;4990958;28;20056;-81
2023/09/17 05:11:15;;;;;;;8.05;2.90;;;;;;;;;;4995296;28;20154;-84
2023/09/17 05:13:41;;;;;;;9.93;3.20;;;;;;;;;;4999617;28;20034;-81
2023/09/17 05:16:07;;;;;;;12.23;3.40;;;;;;;;;;5002988;28;20037;-82
2023/09/17 05:18:33;;;;;;;10.07;3.53;;;;;;;;;;5006251;28;20026;-82
2023/09/17 05:20:59;;;;;;;8.88;3.60;;;;;;;;;;4999357;28;20030;-81
2023/09/17 05:23:25;;;;;;;5.75;3.53;;;;;;;;;;5001202;28;20593;-81
2023/09/17 05:25:51;;;;;;;5.55;3.25;;;15.20;99.90;;;;;;4998310;28;20029;-81
2023/09/17 05:28:17;;;;;;;5.47;3.75;;;;;;;;;;4993689;28;21142;-83
2023/09/17 05:30:43;;;;;;;6.85;4.18;;;;;;;;;;4997874;28;20064;-84
2023/09/17 05:33:09;;;;;;;6.65;3.75;;;;;;;;;;5001794;28;20038;-82
2023/09/17 05:35:36;;;;;;;7.20;4.38;;;;;;;;;;5004007;28;20030;-83
2023/09/17 05:38:02;;;;;;;7.43;4.18;;;;;;;;;;5002354;28;20046;-82
2023/09/17 05:40:31;;;;;;;5.65;3.80;;;15.50;99.90;;;;;;4999552;28;20050;-83
2023/09/17 05:42:58;;;;;;;7.47;3.60;;;;;;;;;;5001246;28;20503;-80
2023/09/17 05:45:24;;;;;;;8.15;4.13;;;;;;;;;;5008333;28;20499;-84
2023/09/17 05:47:50;;;;;;;6.60;3.85;;;;;;;;;;5006098;28;20073;-82
2023/09/17 05:50:17;;;;;;;6.93;3.88;;;;;;;;;;5007777;28;20063;-84
2023/09/17 05:52:42;;;;;;;7.00;4.05;;;16.00;99.90;;;;;;5007501;28;20042;-83
2023/09/17 05:55:09;;;;;;;6.97;4.43;;;;;;;;;;5006227;28;20117;-83
2023/09/17 05:57:34;;;;;;;5.75;3.65;;;;;;;;;;5006362;28;20030;-83
2023/09/17 06:00:04;;;;;;;6.28;3.95;;;16.00;99.90;;;;;;5004889;28;20095;-83
2023/09/17 06:02:31;;;;;;;4.82;2.88;;;;;;;;;;5000760;28;20065;-85
2023/09/17 06:04:56;;;;;;;8.48;3.10;;;16.00;99.90;;;;;;5005121;28;20568;-82
2023/09/17 06:07:23;;;;;;;6.45;3.70;;;;;;;;;;5003468;28;20045;-84
2023/09/17 06:09:49;;;;;;;6.00;3.92;;;;;;;;;;5004733;28;20034;-82
2023/09/17 06:12:18;;;;;;;5.50;3.65;;;;;;;;;;4995631;28;20034;-81
2023/09/17 06:14:43;;;;;;;7.57;3.58;;;;;;;;;;4996929;28;20026;-82
2023/09/17 06:17:09;;;;;;;8.15;4.72;;;15.40;99.90;;;;;;4998382;28;20022;-82
2023/09/17 06:19:37;;;;;;;7.18;4.10;;;;;;;;;;4990472;28;20069;-83
2023/09/17 06:22:03;;;;;;;7.88;4.30;;;16.40;99.90;;;;;;4992191;28;20475;-82
2023/09/17 06:24:29;;;;;;;6.43;3.85;;;;;;;;;;4997195;28;20061;-83
2023/09/17 06:26:55;;;;;;;9.07;3.83;;;;;;;;;;4993794;28;20142;-82
2023/09/17 06:29:21;;;;;;;7.63;4.47;;;;;;;;;;5007789;28;20523;-81
2023/09/17 06:31:47;;;;;;;9.50;4.18;;;;;;;;;;4994888;28;20080;-83
2023/09/17 06:34:13;;;;;;;8.05;4.32;;;;;;;;;;4996301;28;20037;-83
2023/09/17 06:36:42;;;;;;;10.15;4.63;;;;;;;;;;5003072;28;20026;-81
2023/09/17 06:39:09;;;;;;;13.32;4.80;;;;;;;;;;5008467;28;20023;-82
2023/09/17 06:41:35;;;;;;;5.70;3.75;;;;;;;;;;5007855;28;20057;-82
2023/09/17 06:44:01;;;;;;;10.02;4.70;;;;;;;;;;5007028;28;20026;-81
2023/09/17 06:46:26;;;;;;;9.00;4.97;;;17.00;99.90;;;;;;5005790;28;20049;-81
2023/09/17 06:48:53;;;;;;;9.43;4.22;;;;;;;;;;5002670;28;20037;-82
2023/09/17 06:51:20;;;;;;;7.13;4.40;;;;;;;;;;5011102;28;20030;-81
2023/09/17 06:53:46;;;;;;;8.90;3.88;;;;;;;;;;5006836;28;20034;-83
2023/09/17 06:56:13;;;;;;;7.47;4.72;;;17.40;99.90;;;;;;5002686;28;20041;-82
2023/09/17 06:58:39;;;;;;;6.68;4.03;;;;;;;;;;5000911;28;20091;-81
2023/09/17 07:01:05;;;;;;;8.80;4.68;;;;;;;;;;5001470;28;20025;-84
2023/09/17 07:03:32;;;;;;;7.25;4.45;;;;;;;;;;5012251;28;20076;-81
2023/09/17 07:05:58;;;;;;;7.53;3.88;;;17.40;99.90;;;;;;5002728;28;20036;-82
2023/09/17 07:08:24;;;;;;;15.38;4.30;;;;;;;;;;5006145;28;20029;-81
2023/09/17 07:10:50;;;;;;;6.82;3.90;;;;;;;;;;4999319;28;20033;-83
2023/09/17 07:13:16;;;;;;;16.63;4.30;;;;;;;;;;5006875;28;20037;-83
2023/09/17 07:15:44;;;;;;;6.00;3.55;;;18.10;99.90;;;;;;5004416;28;20548;-82
2023/09/17 07:18:10;;;;;;;7.38;4.53;;;;;;;;;;5006847;28;20090;-82
2023/09/17 07:20:37;;;;;;;8.55;3.75;;;;;;;;;;5004061;28;20068;-84
2023/09/17 07:23:03;;;;;;;8.43;4.57;;;;;;;;;;5000686;28;20065;-82
2023/09/17 07:25:29;;;;;;;7.57;3.95;;;;;;;;;;5005127;28;20051;-80
2023/09/17 07:27:55;;;;;;;8.02;3.90;;;18.90;99.90;;;;;;5007190;28;20388;-83
2023/09/17 07:30:20;;;;;;;6.03;4.05;;;19.10;99.90;;;;;;5003646;28;20029;-82
2023/09/17 07:32:46;;;;;;;9.50;4.82;;;;;;;;;;5007866;28;20026;-82
2023/09/17 07:35:12;;;;;;;7.03;4.20;;;;;;;;;;5003812;28;20038;-84
2023/09/17 07:37:38;;;;;;;6.95;4.22;;;;;;;;;;5001509;28;20036;-82
2023/09/17 07:40:05;;;;;;;9.43;4.28;;;19.50;99.90;;;;;;5001179;28;20030;-80
2023/09/17 07:42:31;;;;;;;6.95;3.95;;;;;;;;;;5000587;28;20045;-82
2023/09/17 07:44:57;;;;;;;8.32;4.95;;;;;;;;;;5007973;28;20041;-81
2023/09/17 07:47:23;;;;;;;6.22;3.92;;;;;;;;;;5000778;28;20017;-83
2023/09/17 07:49:49;;;;;;;6.60;3.88;;;;;;;;;;4998871;28;20531;-82
2023/09/17 07:52:15;;;;;;;7.15;3.83;;;19.90;99.90;;;;;;5003404;28;20030;-81
2023/09/17 07:54:42;;;;;;;7.93;3.78;;;19.90;99.90;;;;;;5006862;28;20080;-82
2023/09/17 07:57:08;;;;;;;8.02;3.85;;;;;;;;;;5001111;28;20026;-82
2023/09/17 07:59:34;;;;;;;6.80;3.72;;;;;;;;;;5009616;28;20030;-83
2023/09/17 08:02:01;;;;;;;6.35;3.40;;;20.30;99.90;;;;;;5005980;28;20925;-83
2023/09/17 08:04:27;;;;;;;5.93;3.58;;;;;;;;;;5007943;28;20065;-81
2023/09/17 08:06:53;;;;;;;5.97;3.30;;;;;;;;;;5006064;28;20022;-81
2023/09/17 08:09:18;;;;;;;5.18;3.65;;;22.40;99.90;;;;;;5008107;28;20436;-82
2023/09/17 08:11:45;;;;;;;5.88;3.17;;;;;;;;;;5006155;28;20049;-82
2023/09/17 08:14:11;;;;;;;6.05;3.13;;;;;;;;;;5005074;28;20030;-84
2023/09/17 08:16:37;;;;;;;4.15;2.42;;;;;;;;;;5003781;28;20080;-85
2023/09/17 08:19:05;;;;;;;4.40;2.63;;;27.80;99.90;;;;;;5004553;28;20439;-82
2023/09/17 08:21:32;;;;;;;4.53;2.35;;;;;;;;;;5003618;28;20388;-81
2023/09/17 08:23:58;;;;;;;10.45;2.47;;;;;;;;;;5005142;28;20037;-84
2023/09/17 08:26:27;;;;;;;5.18;2.42;;;;;;;;;;5022762;28;20048;-84
2023/09/17 08:28:55;;;;;;;2.70;1.98;;;;;;;;;;5024510;28;20013;-83
2023/09/17 08:31:22;;;;;;;3.45;2.15;;;25.80;99.90;;;;;;5013925;28;20038;-83
2023/09/17 08:33:48;;;;;;;4.68;2.50;;;;;;;;;;5005897;28;20515;-83
2023/09/17 08:36:14;;;;;;;2.85;1.90;;;;;;;;;;5004171;28;20030;-84
2023/09/17 08:38:40;;;;;;;3.05;1.98;;;;;;;;;;5000317;28;20318;-84
2023/09/17 08:41:07;;;;;;;2.55;1.73;;;;;;;;;;5007468;28;20086;-82
2023/09/17 08:43:33;;;;;;;3.97;1.92;;;;;;;;;;5003560;28;20068;-83
2023/09/17 08:46:00;;;;;;;4.88;1.42;;;30.10;99.90;;;;;;5008194;28;20034;-85
2023/09/17 08:48:26;;;;;;;2.67;1.65;;;;;;;;;;5010679;28;20026;-83
2023/09/17 08:50:54;;;;;;;2.70;1.75;;;32.50;99.90;;;;;;5006465;28;20108;-83
2023/09/17 08:53:32;;;;;;;4.13;1.63;;;33.40;97.90;;;;;;5006667;28;20518;-82
2023/09/17 08:55:59;;;;;;;3.45;1.77;;;33.50;96.30;;;;;;5006537;28;20041;-83
2023/09/17 08:58:36;;;;;;;3.25;1.85;;;32.90;95.50;;;;;;5011483;28;20030;-82
2023/09/17 09:01:04;;;;;;;6.45;1.48;;;31.50;99.90;;;;;;5011450;28;20095;-83
2023/09/17 09:03:33;;;;;;;2.92;1.60;;;30.50;99.90;;;;;;5018165;28;20042;-83
2023/09/17 09:05:59;;;;;;;2.20;1.60;;;;;;;;;;5011682;28;20516;-82
2023/09/17 09:08:26;;;;;;;4.30;2.10;;;29.10;98.70;;;;;;5013170;28;20045;-83
2023/09/17 09:10:52;;;;;;;2.63;1.50;;;;;;;;;;5014624;28;20558;-83
2023/09/17 09:13:20;;;;;;;7.80;1.75;;;29.10;99.90;;;;;;5013759;28;20391;-81
2023/09/17 09:15:47;;;;;;;2.50;1.70;;;;;;;;;;5018934;28;20036;-83
2023/09/17 09:18:13;;;;;;;3.88;1.65;;;;;;;;;;5012195;28;20021;-84
2023/09/17 09:20:40;;;;;;;5.60;1.70;;;28.90;99.90;;;;;;5006358;28;20036;-83
2023/09/17 09:23:06;;;;;;;2.58;1.67;;;28.70;99.90;;;;;;5010284;28;20099;-83
2023/09/17 09:25:32;;;;;;;1.90;1.20;;;;;;;;;;5022954;28;20038;-84
2023/09/17 09:28:00;;;;;;;2.30;1.40;;;27.70;99.90;;;;;;5008006;28;20461;-82
2023/09/17 09:30:26;;;;;;;2.38;1.60;;;;;;;;;;5016966;28;20026;-84
2023/09/17 09:32:52;;;;;;;3.65;1.83;;;;;;;;;;5015932;28;20468;-84
2023/09/17 09:35:18;;;;;;;2.88;1.20;;;27.80;99.90;;;;;;5005451;28;20092;-84
2023/09/17 09:37:45;;;;;;;2.90;1.48;;;27.70;99.90;;;;;;5004057;28;20360;-83
2023/09/17 09:40:11;;;;;;;4.95;1.20;;;;;;;;;;5012640;28;20032;-85
2023/09/17 09:42:37;;;;;;;2.78;1.50;;;27.90;99.90;;;;;;5008302;28;20029;-82
2023/09/17 09:45:03;;;;;;;1.65;1.08;;;27.30;99.90;;;;;;5013135;28;20088;-84
2023/09/17 09:47:30;;;;;;;2.78;1.13;;;26.90;99.90;;;;;;5010549;28;20496;-83
2023/09/17 09:49:56;;;;;;;2.58;0.90;;;;;;;;;;5009158;28;20036;-84
2023/09/17 09:52:25;;;;;;;3.00;0.80;;;27.30;98.70;;;;;;5003602;28;20034;-84
2023/09/17 09:54:51;;;;;;;2.55;1.13;;;27.10;99.90;;;;;;5013270;28;20388;-83
2023/09/17 09:57:19;;;;;;;4.53;1.13;;;27.30;99.90;;;;;;5008813;28;20032;-82
2023/09/17 09:59:47;;;;;;;4.03;1.20;;;27.50;99.90;;;;;;5015541;28;20040;-82
2023/09/17 10:02:15;;;;;;;3.55;1.35;;;27.30;99.90;;;;;;5010451;28;20019;-83
2023/09/17 10:04:42;;;;;;;4.50;1.35;;;27.40;99.90;;;;;;5009776;28;20124;-83
2023/09/17 10:07:08;;;;;;;3.72;1.60;;;;;;;;;;5009352;28;20280;-84
2023/09/17 10:09:34;;;;;;;4.78;1.33;;;;;;;;;;5009621;28;20189;-83
2023/09/17 10:12:00;;;;;;;2.30;1.40;;;;;;;;;;5001771;28;20734;-82
2023/09/17 10:14:26;;;;;;;2.13;1.10;;;27.30;99.90;;;;;;4993969;28;20079;-83
2023/09/17 10:16:54;;;;;;;3.10;1.35;;;27.20;99.90;;;;;;4993165;28;20026;-85
2023/09/17 10:19:23;;;;;;;3.97;1.48;;;27.30;99.90;;;;;;4995981;28;20053;-83
2023/09/17 10:21:50;;;;;;;2.10;1.10;;;27.80;99.90;;;;;;4994029;28;20049;-83
2023/09/17 10:24:17;;;;;;;3.40;1.45;;;;;;;;;;5000203;28;20049;-83
2023/09/17 10:26:43;;;;;;;2.85;1.30;;;27.70;99.90;;;;;;4991375;28;20030;-83
2023/09/17 10:29:14;;;;;;;1.92;1.25;;;27.60;99.80;;;;;;4989780;28;20033;-80
2023/09/17 10:31:41;;;;;;;2.78;0.90;;;27.60;99.90;;;;;;4988846;28;20030;-83
2023/09/17 10:34:10;;;;;;;3.17;1.13;;;28.10;99.30;;;;;;4993622;28;20090;-82
2023/09/17 10:36:38;;;;;;;3.75;1.30;;;27.60;99.00;;;;;;4995867;28;20030;-82
2023/09/17 10:39:10;;;;;;;6.05;1.40;;;28.30;99.90;;;;;;4992962;28;20038;-82
2023/09/17 10:41:39;;;;;;;3.85;1.40;;;28.00;99.90;;;;;;4999551;28;20022;-81
2023/09/17 10:44:07;;;;;;;2.55;1.00;;;28.00;99.60;;;;;;4994683;28;20123;-82
2023/09/17 10:46:35;;;;;;;4.35;1.48;;;28.10;97.70;;;;;;4986168;28;20109;-86
2023/09/17 10:49:02;;;;;;;1.58;0.75;;;;;;;;;;5003540;28;20045;-83
2023/09/17 10:51:28;;;;;;;2.13;1.10;;;;;;;;;;5002023;28;20026;-84
2023/09/17 10:53:55;;;;;;;2.55;1.02;;;;;;;;;;5000777;28;20038;-83
2023/09/17 10:56:21;;;;;;;3.85;0.85;;;28.00;96.70;;;;;;4994035;28;20028;-83
2023/09/17 10:58:50;;;;;;;2.13;0.80;;;28.50;96.40;;;;;;4997241;28;20400;-83
2023/09/17 11:01:20;;;;;;;3.90;0.85;;;28.00;96.30;;;;;;5000440;28;20022;-82
2023/09/17 11:03:55;;;;;;;3.97;1.42;;;28.20;99.90;;;;;;5004060;28;20034;-82
2023/09/17 11:06:26;;;;;;;3.75;0.88;;;28.60;99.90;;;;;;4999501;28;20145;-79
2023/09/17 11:08:56;;;;;;;2.65;0.95;;;28.50;95.80;;;;;;5001269;28;20060;-84
2023/09/17 11:11:27;;;;;;;1.17;0.60;;;29.10;96.00;;;;;;5004202;28;20120;-84
2023/09/17 11:13:54;;;;;;;2.42;1.00;;;;;;;;;;5006656;28;20476;-82
2023/09/17 11:16:20;;;;;;;2.65;0.90;;;29.00;95.90;;;;;;4999721;28;20040;-83
2023/09/17 11:19:08;;;;;;;2.97;0.93;;;28.30;95.70;;;;;;5007248;28;20026;-83
2023/09/17 11:21:35;;;;;;;1.42;0.82;;;28.40;95.80;;;;;;5010966;28;20806;-85
2023/09/17 11:24:06;;;;;;;3.72;0.90;;;28.00;96.10;;;;;;5011360;28;20040;-82
2023/09/17 11:26:34;;;;;;;1.55;0.85;;;28.30;99.90;;;;;;5009156;28;20040;-82
2023/09/17 11:29:06;;;;;;;2.70;1.10;;;28.20;99.90;;;;;;5007009;28;20534;-83
2023/09/17 11:31:57;;;;;;;3.42;1.02;;;28.30;99.90;;;;;;5004026;28;20041;-82
2023/09/17 11:34:23;;;;;;;2.85;0.90;;;;;;;;;;5010083;28;20037;-81
2023/09/17 11:36:50;;;;;;;1.52;0.93;;;;;;;;;;5010076;28;20567;-85
2023/09/17 11:39:20;;;;;;;3.78;1.13;;;;;;;;;;5004890;28;20061;-83
2023/09/17 11:41:48;;;;;;;2.92;0.98;;;28.40;99.90;;;;;;5010848;28;20117;-82
2023/09/17 11:44:15;;;;;;;2.75;1.00;;;28.60;94.20;;;;;;5005403;28;20029;-84
2023/09/17 11:46:42;;;;;;;2.00;0.75;;;29.10;95.20;;;;;;5010359;28;20040;-85
2023/09/17 11:49:08;;;;;;;3.83;1.08;;;;;;;;;;5011318;28;20083;-84
2023/09/17 11:51:34;;;;;;;2.75;0.80;;;;;;;;;;5005906;28;20030;-83
2023/09/17 11:54:08;;;;;;;3.97;2.15;;;28.70;95.50;;;;;;5007387;28;20031;-83
2023/09/17 11:56:35;;;;;;;3.70;1.10;;;29.20;95.30;;;;;;5011099;28;20037;-86
2023/09/17 11:59:11;;;;;;;4.32;1.17;;;29.10;93.20;;;;;;5007361;28;20048;-86
2023/09/17 12:01:50;;;;;;;2.00;0.90;;;29.10;99.30;;;;;;5005036;28;20049;-83
2023/09/17 12:04:16;;;;;;;2.33;1.10;;;29.20;94.60;;;;;;5008744;28;20167;-84
2023/09/17 12:06:45;;;;;;;1.90;0.90;;;28.50;94.30;;;;;;5000814;28;20079;-84
2023/09/17 12:09:43;;;;;;;6.00;1.17;;;;;;;;;;5011245;28;20026;-84
2023/09/17 12:11:58;;;;;;;4.75;1.42;;;29.30;99.90;;;;;;5007856;28;20032;-84
2023/09/17 12:14:24;;;;;;;3.25;1.00;;;;;;;;;;5006732;28;20034;-84
2023/09/17 12:16:50;;;;;;;4.47;1.00;;;;;;;;;;5006505;28;20026;-84
2023/09/17 12:19:20;;;;;;;3.05;1.13;;;29.70;92.50;;;;;;5005958;28;20555;-84
2023/09/17 12:21:48;;;;;;;1.73;0.85;;;29.20;93.60;;;;;;5012169;28;20431;-85
2023/09/17 12:24:28;;;;;;;6.47;1.55;;;29.40;92.20;;;;;;5011004;28;20536;-86
2023/09/17 12:27:25;;;;;;;3.85;1.00;;;29.60;99.90;;;;;;5009690;28;20076;-83
2023/09/17 12:29:53;;;;;;;2.25;1.00;;;29.40;94.00;;;;;;5011329;28;20040;-84
2023/09/17 12:32:21;;;;;;;2.22;0.82;;;29.60;93.30;;;;;;5013389;28;20029;-87
2023/09/17 12:34:49;;;;;;;10.18;1.40;;;29.40;99.90;;;;;;5006932;28;20037;-83
2023/09/17 12:37:17;;;;;;;3.10;1.05;;;;;;;;;;5018110;28;20082;-85
2023/09/17 12:39:52;;;;;;;4.85;1.10;;;29.50;93.60;;;;;;5033725;28;20065;-88
2023/09/17 12:42:19;;;;;;;2.10;0.70;;;;;;;;;;5024416;28;20510;-83
2023/09/17 12:44:45;;;;;;;5.13;0.95;;;29.80;94.70;;;;;;5011207;28;22091;-83
2023/09/17 12:47:11;;;;;;;3.22;1.02;;;;;;;;;;5006782;28;20425;-88
2023/09/17 12:49:37;;;;;;;1.92;0.68;;;29.90;99.90;;;;;;5012523;28;20097;-84
2023/09/17 12:52:03;;;;;;;2.85;1.23;;;29.90;92.00;;;;;;5010562;28;20065;-84
2023/09/17 12:54:29;;;;;;;1.40;0.73;;;29.70;99.90;;;;;;5015141;28;20412;-84
2023/09/17 12:56:59;;;;;;;1.75;0.80;;;29.70;99.90;;;;;;5009932;28;20030;-82
2023/09/17 12:59:37;;;;;;;2.58;0.80;;;29.60;92.50;;;;;;5009456;28;20027;-84
2023/09/17 13:02:04;;;;;;;1.58;0.90;;;30.00;99.90;;;;;;5014002;28;20022;-84
2023/09/17 13:04:41;;;;;;;0.95;0.52;;;29.90;90.40;;;;;;5012766;28;20054;-84
2023/09/17 13:07:17;;;;;;;1.92;0.77;;;30.00;90.40;;;;;;5010343;28;20048;-84
2023/09/17 13:09:44;;;;;;;2.97;0.88;;;29.80;99.90;;;;;;5015304;28;20026;-81
2023/09/17 13:12:10;;;;;;;1.95;0.93;;;;;;;;;;5004247;28;20170;-84
2023/09/17 13:14:37;;;;;;;2.75;0.68;;;29.90;89.90;;;;;;5010138;28;20030;-84
2023/09/17 13:17:04;;;;;;;1.17;0.65;;;29.90;92.80;;;;;;5012319;28;20087;-83
2023/09/17 13:19:30;;;;;;;3.17;0.70;;;30.00;98.60;;;;;;5011517;28;20034;-83
2023/09/17 13:21:56;;;;;;;2.05;0.50;;;30.40;99.80;;;;;;5011445;28;20408;-82
2023/09/17 13:24:22;;;;;;;1.65;0.60;;;;;;;;;;5012417;28;20042;-84
2023/09/17 13:26:48;;;;;;;3.00;1.02;;;;;;;;;;5013170;28;20030;-82
2023/09/17 13:29:14;;;;;;;2.30;0.77;;;;;;;;;;5012396;28;20072;-87
2023/09/17 13:31:40;;;;;;;2.10;0.57;;;30.10;88.50;;;;;;5008840;28;20052;-80
2023/09/17 13:34:07;;;;;;;0.75;0.40;;;30.00;98.90;;;;;;5000877;28;20042;-83
2023/09/17 13:36:34;;;;;;;4.60;1.00;;;;;;;;;;5001390;28;20046;-81
2023/09/17 13:39:00;;;;;;;3.75;0.70;;;30.20;99.10;;;;;;5008696;28;20499;-83
2023/09/17 13:41:28;;;;;;;1.83;0.52;;;29.90;99.30;;;;;;5009589;28;20074;-82
2023/09/17 13:43:55;;;;;;;2.22;1.17;;;29.20;87.40;;;;;;5007705;28;20048;-83
2023/09/17 13:46:22;;;;;;;2.92;0.50;;;;;;;;;;5016741;28;20038;-84
2023/09/17 13:48:48;;;;;;;4.53;1.23;;;;;;;;;;5011776;28;20030;-83
2023/09/17 13:51:14;;;;;;;3.72;0.73;;;29.50;95.80;;;;;;5011253;28;20516;-83
2023/09/17 13:53:40;;;;;;;1.38;0.60;;;;;;;;;;5010032;28;20161;-83
2023/09/17 13:56:06;;;;;;;2.88;0.55;;;;;;;;;;5012851;28;20040;-83